Terminal Aerodrome Forecast
Issued by NWS

Home | Current Version | Previous Version | Text Only | Print | Product List | Glossary On
Versions: 1 2 3 4 5 6 7 8 9 10 11 12 13 14 15 16
000
FTUS43 KICT 251729 AAA
TAFHUT
TAF AMD
KHUT 251729Z 2517/2618 34015KT P6SM VCSH OVC012
      TEMPO 2518/2520 5SM BR OVC009
     FM252100 35014KT P6SM BKN025
     FM252300 36010KT P6SM BKN030
     FM260200 VRB03KT P6SM BKN050
     FM260800 19003KT 3SM BR FEW250
     FM261400 20007KT P6SM FEW200=

USA.gov is the U.S. government's official web portal to all federal, state and local government web resources and services.